createdAt,value
2022-12-19T00:01:33.143Z,41.25
2022-12-19T00:04:02.072Z,41.08
2022-12-19T00:06:34.497Z,40.96
2022-12-19T00:09:01.411Z,41.18
2022-12-19T00:11:29.132Z,41.47
2022-12-19T00:13:55.989Z,41.19
2022-12-19T00:16:25.135Z,41.20
2022-12-19T00:18:55.413Z,41.20
2022-12-19T00:21:24.229Z,41.18
2022-12-19T00:23:50.830Z,41.08
2022-12-19T00:26:20.298Z,40.98
2022-12-19T00:28:48.828Z,41.19
2022-12-19T00:31:16.949Z,41.24
2022-12-19T00:33:43.888Z,41.62
2022-12-19T00:36:12.866Z,41.26
2022-12-19T00:38:39.739Z,41.24
2022-12-19T00:41:16.166Z,41.06
2022-12-19T00:43:44.109Z,41.13
2022-12-19T00:46:13.353Z,41.21
2022-12-19T00:48:40.169Z,41.32
2022-12-19T00:51:10.752Z,41.16
2022-12-19T00:53:37.353Z,41.08
2022-12-19T00:56:06.268Z,41.54
2022-12-19T00:58:35.441Z,41.24
2022-12-19T01:01:10.381Z,41.10
2022-12-19T01:03:37.246Z,41.11
2022-12-19T01:06:04.401Z,41.41
2022-12-19T01:08:31.785Z,41.00
2022-12-19T01:10:58.460Z,41.22
2022-12-19T01:13:26.680Z,41.28
2022-12-19T01:15:53.285Z,41.21
2022-12-19T01:18:19.882Z,40.99
2022-12-19T01:20:49.569Z,41.43
2022-12-19T01:23:16.855Z,41.32
2022-12-19T01:25:45.842Z,41.22
2022-12-19T01:28:15.060Z,41.01
2022-12-19T01:30:42.621Z,41.71
2022-12-19T01:33:13.687Z,41.19
2022-12-19T01:35:41.288Z,41.08
2022-12-19T01:38:10.269Z,41.32
2022-12-19T01:40:37.458Z,41.45
2022-12-19T01:43:04.351Z,41.43
2022-12-19T01:45:34.910Z,41.30
2022-12-19T01:48:16.217Z,41.34
2022-12-19T01:51:03.307Z,41.34
2022-12-19T01:53:37.943Z,41.15
2022-12-19T01:56:15.343Z,41.73
2022-12-19T01:58:47.709Z,40.99
2022-12-19T02:01:15.463Z,41.39
2022-12-19T02:03:42.561Z,41.23
2022-12-19T02:06:09.677Z,41.10
2022-12-19T02:08:36.731Z,41.50
2022-12-19T02:11:03.307Z,40.82
2022-12-19T02:13:30.077Z,41.32
2022-12-19T02:16:15.161Z,41.35
2022-12-19T02:19:01.921Z,41.12
2022-12-19T02:21:54.902Z,41.29
2022-12-19T02:24:43.415Z,40.96
2022-12-19T02:27:15.937Z,41.17
2022-12-19T02:30:05.019Z,41.07
2022-12-19T02:32:43.457Z,41.29
2022-12-19T02:35:28.608Z,41.04
2022-12-19T02:38:31.374Z,41.44
2022-12-19T02:41:06.059Z,41.17
2022-12-19T02:43:36.800Z,41.34
2022-12-19T02:46:04.089Z,40.92
2022-12-19T02:48:31.238Z,41.11
2022-12-19T02:50:57.809Z,41.07
2022-12-19T02:53:24.375Z,41.59
2022-12-19T02:56:09.421Z,41.27
2022-12-19T02:58:51.106Z,41.47
2022-12-19T03:01:34.840Z,41.33
2022-12-19T03:04:29.697Z,40.96
2022-12-19T03:07:19.540Z,40.92
2022-12-19T03:09:55.611Z,41.05
2022-12-19T03:12:31.341Z,41.34
2022-12-19T03:14:59.248Z,41.40
2022-12-19T03:17:26.347Z,40.99
2022-12-19T03:19:52.925Z,41.13
2022-12-19T03:22:19.521Z,40.86
2022-12-19T03:24:46.087Z,41.27
2022-12-19T03:27:20.882Z,41.23
2022-12-19T03:30:00.144Z,41.42
2022-12-19T03:32:27.425Z,41.27
2022-12-19T03:34:59.649Z,40.82
2022-12-19T03:37:28.919Z,40.86
2022-12-19T03:39:59.052Z,41.13
2022-12-19T03:42:45.224Z,41.35
2022-12-19T03:45:13.755Z,40.71
2022-12-19T03:47:44.512Z,41.27
2022-12-19T03:50:11.301Z,40.98
2022-12-19T03:53:06.161Z,41.23
2022-12-19T03:55:47.423Z,41.13
2022-12-19T03:58:19.446Z,41.25
2022-12-19T04:00:49.840Z,41.07
2022-12-19T04:03:17.614Z,41.58
2022-12-19T04:05:46.140Z,41.29
2022-12-19T04:08:13.178Z,41.15
2022-12-19T04:11:09.203Z,41.26
2022-12-19T04:13:39.005Z,41.19
2022-12-19T04:16:13.370Z,41.12
2022-12-19T04:18:41.890Z,41.09
2022-12-19T04:21:13.066Z,40.76
2022-12-19T04:23:44.892Z,41.04
2022-12-19T04:26:13.964Z,41.00
2022-12-19T04:28:46.092Z,41.17
2022-12-19T04:31:14.749Z,41.20
2022-12-19T04:33:41.513Z,41.22
2022-12-19T04:36:08.580Z,40.94
2022-12-19T04:38:35.139Z,40.88
2022-12-19T04:41:01.695Z,40.88
2022-12-19T04:43:28.253Z,41.62
2022-12-19T04:45:57.532Z,41.31
2022-12-19T04:48:24.871Z,41.27
2022-12-19T04:50:51.435Z,41.46
2022-12-19T04:53:18.258Z,40.79
2022-12-19T04:55:44.808Z,41.14
2022-12-19T04:58:11.532Z,41.33
2022-12-19T05:00:38.533Z,40.93
2022-12-19T05:03:05.191Z,41.20
2022-12-19T05:05:31.889Z,40.99
2022-12-19T05:07:58.458Z,41.05
2022-12-19T05:10:25.224Z,41.35
2022-12-19T05:12:54.126Z,41.14
2022-12-19T05:15:20.666Z,40.97
2022-12-19T05:17:47.270Z,41.09
2022-12-19T05:20:14.081Z,40.97
2022-12-19T05:22:43.708Z,41.26
2022-12-19T05:25:10.312Z,40.83
2022-12-19T05:27:36.928Z,41.43
2022-12-19T05:30:04.022Z,41.27
2022-12-19T05:32:32.075Z,40.91
2022-12-19T05:34:58.622Z,40.92
2022-12-19T05:37:25.175Z,40.99
2022-12-19T05:39:51.739Z,40.74
2022-12-19T05:42:18.318Z,41.31
2022-12-19T05:44:44.853Z,40.84
2022-12-19T05:47:11.385Z,41.07
2022-12-19T05:49:40.932Z,41.31
2022-12-19T05:52:07.491Z,41.31
2022-12-19T05:54:34.120Z,41.12
2022-12-19T05:57:01.567Z,41.31
2022-12-19T05:59:28.105Z,41.15
2022-12-19T06:01:54.955Z,41.42
2022-12-19T06:04:21.699Z,40.69
2022-12-19T06:06:48.268Z,41.02
2022-12-19T06:09:14.880Z,41.13
2022-12-19T06:11:41.431Z,41.15
2022-12-19T06:14:08.003Z,41.08
2022-12-19T06:16:34.581Z,41.05
2022-12-19T06:19:01.171Z,40.97
2022-12-19T06:21:27.921Z,40.97
2022-12-19T06:23:54.881Z,40.98
2022-12-19T06:26:22.589Z,40.84
2022-12-19T06:28:50.518Z,40.34
2022-12-19T06:31:18.060Z,41.11
2022-12-19T06:33:45.043Z,41.13
2022-12-19T06:36:23.429Z,41.24
2022-12-19T06:38:50.708Z,41.33
2022-12-19T06:41:37.029Z,40.88
2022-12-19T06:44:08.848Z,40.83
2022-12-19T06:46:36.213Z,40.98
2022-12-19T06:49:03.267Z,40.96
2022-12-19T06:51:30.200Z,41.10
2022-12-19T06:53:56.957Z,41.27
2022-12-19T06:56:23.593Z,41.13
2022-12-19T06:58:50.615Z,41.47
2022-12-19T07:01:27.783Z,41.41
2022-12-19T07:03:54.957Z,41.41
2022-12-19T07:06:21.537Z,41.05
2022-12-19T07:08:48.068Z,41.36
2022-12-19T07:11:14.607Z,41.35
2022-12-19T07:13:41.138Z,40.78
2022-12-19T07:16:08.453Z,41.33
2022-12-19T07:18:37.657Z,41.33
2022-12-19T07:21:05.029Z,41.07
2022-12-19T07:23:31.694Z,41.52
2022-12-19T07:25:58.456Z,41.13
2022-12-19T07:28:25.070Z,40.97
2022-12-19T07:30:51.571Z,41.37
2022-12-19T07:33:21.361Z,41.26
2022-12-19T07:35:48.586Z,41.21
2022-12-19T07:38:15.170Z,41.20
2022-12-19T07:40:41.833Z,40.98
2022-12-19T07:43:08.485Z,41.34
2022-12-19T07:45:37.372Z,41.18
2022-12-19T07:48:05.251Z,41.64
2022-12-19T07:50:31.998Z,41.44
2022-12-19T07:52:59.178Z,41.20
2022-12-19T07:55:26.710Z,41.25
2022-12-19T07:57:54.050Z,40.80
2022-12-19T08:00:21.546Z,40.92
2022-12-19T08:02:48.232Z,40.97
2022-12-19T08:05:15.116Z,41.24
2022-12-19T08:07:43.005Z,40.90
2022-12-19T08:10:11.516Z,41.04
2022-12-19T08:12:38.257Z,40.71
2022-12-19T08:15:05.826Z,41.26
2022-12-19T08:17:34.424Z,41.38
2022-12-19T08:20:01.072Z,41.46
2022-12-19T08:22:29.623Z,41.28
2022-12-19T08:24:57.474Z,41.13
2022-12-19T08:27:24.182Z,40.74
2022-12-19T08:29:50.744Z,41.63
2022-12-19T08:32:21.237Z,40.92
2022-12-19T08:34:48.633Z,41.28
2022-12-19T08:37:15.282Z,41.09
2022-12-19T08:39:41.857Z,41.18
2022-12-19T08:42:08.436Z,41.23
2022-12-19T08:44:35.004Z,41.08
2022-12-19T08:47:02.337Z,40.80
2022-12-19T08:49:28.894Z,40.86
2022-12-19T08:51:55.542Z,41.00
2022-12-19T08:54:22.145Z,41.32
2022-12-19T08:56:48.700Z,40.88
2022-12-19T08:59:26.429Z,41.14
2022-12-19T09:02:01.836Z,40.95
2022-12-19T09:05:53.231Z,40.92
2022-12-19T09:07:16.248Z,41.06
2022-12-19T09:09:43.876Z,41.48
2022-12-19T09:12:10.505Z,41.09
2022-12-19T09:14:37.083Z,41.19
2022-12-19T09:17:04.865Z,41.32
2022-12-19T09:19:31.959Z,41.33
2022-12-19T09:21:58.650Z,41.16
2022-12-19T09:24:25.241Z,41.12
2022-12-19T09:26:51.830Z,41.24
2022-12-19T09:29:20.990Z,41.37
2022-12-19T09:31:50.430Z,41.09
2022-12-19T09:34:29.974Z,41.47
2022-12-19T09:37:08.631Z,41.39
2022-12-19T09:39:36.348Z,40.85
2022-12-19T09:42:40.887Z,41.26
2022-12-19T09:45:49.720Z,40.99
2022-12-19T09:48:24.060Z,41.27
2022-12-19T09:51:09.543Z,41.22
2022-12-19T09:53:56.125Z,41.06
2022-12-19T09:56:26.203Z,41.43
2022-12-19T09:59:03.551Z,41.34
2022-12-19T10:01:36.231Z,41.72
2022-12-19T10:04:13.948Z,41.51
2022-12-19T10:07:11.686Z,41.18
2022-12-19T10:12:22.841Z,41.14
2022-12-19T10:12:47.347Z,41.40
2022-12-19T10:15:17.909Z,41.05
2022-12-19T10:17:50.473Z,41.33
2022-12-19T10:20:38.682Z,40.97
2022-12-19T10:23:31.601Z,41.07
2022-12-19T10:26:13.244Z,41.08
2022-12-19T10:28:39.819Z,41.16
2022-12-19T10:31:23.200Z,41.35
2022-12-19T10:34:11.935Z,41.31
2022-12-19T10:37:27.082Z,41.40
2022-12-19T10:39:50.138Z,40.98
2022-12-19T10:42:51.086Z,41.25
2022-12-19T10:45:20.900Z,41.19
2022-12-19T10:47:52.750Z,41.07
2022-12-19T10:50:24.523Z,41.41
2022-12-19T10:53:07.731Z,41.43
2022-12-19T10:55:54.080Z,40.92
2022-12-19T10:58:28.754Z,41.02
2022-12-19T11:01:02.266Z,40.96
2022-12-19T11:03:29.293Z,41.63
2022-12-19T11:05:57.721Z,41.27
2022-12-19T11:08:33.062Z,40.71
2022-12-19T11:13:02.064Z,41.09
2022-12-19T11:19:17.829Z,41.35
2022-12-19T11:22:17.318Z,41.39
2022-12-19T11:29:15.694Z,41.40
2022-12-19T11:29:41.076Z,41.39
2022-12-19T11:29:42.128Z,41.05
2022-12-19T11:30:46.075Z,41.21
2022-12-19T11:34:21.264Z,41.01
2022-12-19T11:36:52.390Z,40.97
2022-12-19T11:39:26.224Z,41.22
2022-12-19T11:42:08.053Z,41.55
2022-12-19T11:44:39.302Z,40.97
2022-12-19T11:47:32.392Z,41.16
2022-12-19T11:50:03.399Z,41.37
2022-12-19T11:55:41.088Z,41.37
2022-12-19T11:58:11.100Z,41.54
2022-12-19T12:00:40.692Z,41.22
2022-12-19T12:03:36.676Z,40.81
2022-12-19T12:06:12.107Z,41.43
2022-12-19T12:10:22.723Z,40.88
2022-12-19T12:19:53.850Z,41.16
2022-12-19T12:27:27.286Z,41.35
2022-12-19T12:31:18.382Z,41.12
2022-12-19T12:31:39.471Z,41.12
2022-12-19T12:31:48.725Z,41.45
2022-12-19T12:31:58.649Z,41.43
2022-12-19T12:32:02.747Z,41.12
2022-12-19T12:35:55.105Z,41.39
2022-12-19T12:39:29.738Z,41.66
2022-12-19T12:42:14.586Z,41.72
2022-12-19T12:44:45.980Z,41.34
2022-12-19T12:47:22.705Z,41.36
2022-12-19T12:50:06.563Z,41.51
2022-12-19T12:52:37.175Z,41.56
2022-12-19T12:55:21.027Z,41.35
2022-12-19T12:57:47.900Z,40.93
2022-12-19T13:00:25.000Z,41.36
2022-12-19T13:03:16.379Z,41.55
2022-12-19T13:05:48.925Z,41.69
2022-12-19T13:08:38.281Z,41.16
2022-12-19T13:11:38.712Z,41.48
2022-12-19T13:14:34.341Z,41.46
2022-12-19T13:17:13.200Z,41.48
2022-12-19T13:19:53.107Z,40.98
2022-12-19T13:22:38.406Z,41.71
2022-12-19T13:25:26.559Z,41.12
2022-12-19T13:28:22.748Z,41.07
2022-12-19T13:31:18.429Z,41.55
2022-12-19T13:34:11.687Z,41.22
2022-12-19T13:39:57.352Z,41.04
2022-12-19T13:40:00.874Z,41.43
2022-12-19T13:42:53.952Z,41.16
2022-12-19T13:45:40.204Z,41.58
2022-12-19T13:48:14.006Z,41.53
2022-12-19T13:50:41.489Z,41.65
2022-12-19T13:53:23.345Z,41.59
2022-12-19T13:55:50.827Z,41.36
2022-12-19T13:58:37.179Z,41.28
2022-12-19T14:01:07.809Z,41.17
2022-12-19T14:03:47.234Z,41.40
2022-12-19T14:06:27.786Z,40.98
2022-12-19T14:11:26.083Z,41.99
2022-12-19T14:12:27.346Z,41.44
2022-12-19T14:15:02.778Z,41.73
2022-12-19T14:17:38.757Z,41.89
2022-12-19T14:22:03.526Z,41.27
2022-12-19T14:23:10.500Z,41.50
2022-12-19T14:28:20.205Z,41.35
2022-12-19T14:28:50.718Z,41.14
2022-12-19T14:31:21.863Z,40.93
2022-12-19T14:36:38.482Z,41.84
2022-12-19T14:39:23.966Z,41.24
2022-12-19T14:42:12.008Z,41.38
2022-12-19T14:51:51.632Z,41.34
2022-12-19T14:53:52.579Z,41.68
2022-12-19T14:54:15.602Z,41.44
2022-12-19T14:54:33.978Z,41.79
2022-12-19T14:56:33.609Z,41.70
2022-12-19T14:59:28.162Z,41.64
2022-12-19T15:02:07.136Z,41.75
2022-12-19T15:04:51.397Z,41.77
2022-12-19T15:07:22.906Z,41.62
2022-12-19T15:11:06.609Z,41.86
2022-12-19T15:14:55.964Z,41.42
2022-12-19T15:16:02.075Z,41.45
2022-12-19T15:18:41.165Z,41.67
2022-12-19T15:21:12.915Z,41.57
2022-12-19T15:23:39.986Z,41.39
2022-12-19T15:26:17.851Z,41.32
2022-12-19T15:28:52.016Z,41.72
2022-12-19T15:31:25.029Z,41.30
2022-12-19T15:34:33.534Z,41.46
2022-12-19T15:36:38.645Z,42.06
2022-12-19T15:39:05.536Z,41.54
2022-12-19T15:41:32.191Z,41.64
2022-12-19T15:44:08.522Z,41.65
2022-12-19T15:46:35.216Z,41.67
2022-12-19T15:49:02.308Z,41.87
2022-12-19T15:51:28.956Z,42.05
2022-12-19T15:54:04.132Z,42.05
2022-12-19T15:56:51.495Z,41.41
2022-12-19T15:59:23.950Z,41.69
2022-12-19T16:01:51.241Z,41.83
2022-12-19T16:04:18.094Z,41.47
2022-12-19T16:06:44.807Z,41.92
2022-12-19T16:09:25.483Z,41.35
2022-12-19T16:11:53.172Z,41.44
2022-12-19T16:14:20.923Z,41.45
2022-12-19T16:16:52.566Z,41.94
2022-12-19T16:19:28.118Z,41.41
2022-12-19T16:21:56.786Z,41.63
2022-12-19T16:24:24.054Z,41.42
2022-12-19T16:26:55.624Z,41.33
2022-12-19T16:29:31.170Z,41.60
2022-12-19T16:31:57.851Z,41.74
2022-12-19T16:34:24.811Z,41.16
2022-12-19T16:36:51.948Z,41.64
2022-12-19T16:39:18.782Z,41.69
2022-12-19T16:41:45.551Z,41.74
2022-12-19T16:44:20.697Z,42.05
2022-12-19T16:46:50.948Z,41.60
2022-12-19T16:49:25.013Z,41.88
2022-12-19T16:51:52.082Z,41.65
2022-12-19T16:54:18.813Z,41.74
2022-12-19T16:56:50.384Z,41.86
2022-12-19T16:59:32.239Z,42.04
2022-12-19T17:02:00.192Z,41.92
2022-12-19T17:04:27.570Z,41.72
2022-12-19T17:06:55.039Z,41.80
2022-12-19T17:09:23.509Z,41.53
2022-12-19T17:12:00.829Z,41.74
2022-12-19T17:14:31.604Z,41.65
2022-12-19T17:16:58.640Z,41.74
2022-12-19T17:19:38.896Z,41.79
2022-12-19T17:22:13.837Z,41.55
2022-12-19T17:24:40.376Z,41.76
2022-12-19T17:27:07.032Z,41.79
2022-12-19T17:29:33.564Z,41.41
2022-12-19T17:32:00.264Z,41.78
2022-12-19T17:34:30.557Z,41.76
2022-12-19T17:36:57.933Z,41.70
2022-12-19T17:39:26.275Z,41.63
2022-12-19T17:41:54.693Z,41.97
2022-12-19T17:44:21.367Z,42.24
2022-12-19T17:46:48.314Z,42.00
2022-12-19T17:49:24.722Z,41.60
2022-12-19T17:51:54.605Z,41.73
2022-12-19T17:54:21.957Z,42.14
2022-12-19T17:56:49.129Z,42.08
2022-12-19T17:59:16.197Z,42.05
2022-12-19T18:01:43.389Z,41.82
2022-12-19T18:04:14.210Z,41.91
2022-12-19T18:06:42.326Z,41.67
2022-12-19T18:09:22.919Z,41.88
2022-12-19T18:11:50.527Z,41.33
2022-12-19T18:14:18.286Z,41.72
2022-12-19T18:16:45.855Z,41.75
2022-12-19T18:19:23.521Z,41.52
2022-12-19T18:21:50.212Z,41.84
2022-12-19T18:24:17.112Z,41.88
2022-12-19T18:26:44.788Z,41.84
2022-12-19T18:29:11.490Z,41.48
2022-12-19T18:31:40.582Z,41.74
2022-12-19T18:34:18.463Z,42.24
2022-12-19T18:36:45.045Z,41.90
2022-12-19T18:39:23.748Z,41.61
2022-12-19T18:41:51.615Z,41.57
2022-12-19T18:44:18.554Z,41.71
2022-12-19T18:46:45.995Z,41.86
2022-12-19T18:49:16.918Z,42.08
2022-12-19T18:51:44.849Z,42.22
2022-12-19T18:54:17.139Z,41.92
2022-12-19T18:56:44.217Z,41.67
2022-12-19T18:59:11.084Z,42.27
2022-12-19T19:01:42.755Z,42.11
2022-12-19T19:04:12.197Z,41.45
2022-12-19T19:06:40.308Z,42.03
2022-12-19T19:09:15.688Z,41.72
2022-12-19T19:11:42.489Z,42.01
2022-12-19T19:14:09.327Z,41.85
2022-12-19T19:16:36.470Z,42.16
2022-12-19T19:19:04.966Z,41.83
2022-12-19T19:21:34.052Z,41.81
2022-12-19T19:24:06.026Z,41.80
2022-12-19T19:26:35.296Z,41.87
2022-12-19T19:29:03.242Z,41.97
2022-12-19T19:31:31.927Z,42.07
2022-12-19T19:34:03.669Z,41.67
2022-12-19T19:36:31.457Z,41.90
2022-12-19T19:38:58.228Z,41.71
2022-12-19T19:41:29.573Z,42.11
2022-12-19T19:43:57.548Z,42.29
2022-12-19T19:46:24.217Z,42.04
2022-12-19T19:48:50.840Z,41.92
2022-12-19T19:51:17.696Z,41.78
2022-12-19T19:53:44.731Z,42.43
2022-12-19T19:56:11.315Z,41.53
2022-12-19T19:58:37.881Z,42.23
2022-12-19T20:01:09.359Z,42.27
2022-12-19T20:03:36.234Z,41.98
2022-12-19T20:06:03.244Z,42.10
2022-12-19T20:08:38.588Z,41.89
2022-12-19T20:11:06.355Z,41.88
2022-12-19T20:13:33.220Z,41.72
2022-12-19T20:16:11.812Z,42.03
2022-12-19T20:18:41.374Z,42.20
2022-12-19T20:21:13.132Z,42.08
2022-12-19T20:23:41.120Z,41.91
2022-12-19T20:26:07.944Z,41.98
2022-12-19T20:28:34.774Z,41.65
2022-12-19T20:31:01.573Z,42.43
2022-12-19T20:33:28.299Z,42.11
2022-12-19T20:35:58.927Z,42.10
2022-12-19T20:38:25.507Z,42.15
2022-12-19T20:40:55.774Z,42.17
2022-12-19T20:43:23.507Z,41.74
2022-12-19T20:45:50.720Z,41.83
2022-12-19T20:48:17.609Z,42.56
2022-12-19T20:50:44.331Z,42.04
2022-12-19T20:53:10.872Z,42.18
2022-12-19T20:55:37.413Z,42.14
2022-12-19T20:58:04.024Z,41.75
2022-12-19T21:00:30.564Z,42.26
2022-12-19T21:05:43.678Z,41.98
2022-12-19T21:08:10.225Z,41.88
2022-12-19T21:10:36.871Z,42.41
2022-12-19T21:13:03.466Z,41.72
2022-12-19T21:15:31.383Z,41.70
2022-12-19T21:17:57.930Z,42.21
2022-12-19T21:20:28.196Z,41.96
2022-12-19T21:22:59.029Z,42.43
2022-12-19T21:25:25.612Z,42.00
2022-12-19T21:27:52.215Z,42.20
2022-12-19T21:30:19.359Z,42.32
2022-12-19T21:32:46.354Z,42.28
2022-12-19T21:35:13.288Z,42.14
2022-12-19T21:37:43.502Z,41.58
2022-12-19T21:40:10.900Z,42.04
2022-12-19T21:42:37.447Z,42.47
2022-12-19T21:45:04.563Z,42.27
2022-12-19T21:47:31.102Z,42.32
2022-12-19T21:49:57.669Z,42.55
2022-12-19T21:52:24.223Z,42.16
2022-12-19T21:54:50.820Z,42.36
2022-12-19T21:57:17.379Z,42.36
2022-12-19T21:59:44.012Z,41.91
2022-12-19T22:02:10.936Z,42.17
2022-12-19T22:04:37.627Z,42.23
2022-12-19T22:07:05.218Z,42.14
2022-12-19T22:09:31.946Z,41.78
2022-12-19T22:11:58.524Z,41.69
2022-12-19T22:14:25.475Z,41.83
2022-12-19T22:16:52.196Z,41.94
2022-12-19T22:19:19.420Z,42.10
2022-12-19T22:21:46.900Z,41.80
2022-12-19T22:24:14.727Z,41.90
2022-12-19T22:26:41.312Z,42.04
2022-12-19T22:29:09.686Z,42.31
2022-12-19T22:31:37.603Z,42.20
2022-12-19T22:34:10.847Z,42.12
2022-12-19T22:36:39.442Z,42.01
2022-12-19T22:39:09.004Z,42.05
2022-12-19T22:41:36.315Z,42.09
2022-12-19T22:44:03.051Z,42.22
2022-12-19T22:46:34.886Z,42.15
2022-12-19T22:49:03.477Z,42.31
2022-12-19T22:51:31.937Z,42.40
2022-12-19T22:53:59.491Z,42.14
2022-12-19T22:56:28.146Z,42.29
2022-12-19T22:58:56.425Z,42.15
2022-12-19T23:01:29.020Z,41.64
2022-12-19T23:03:58.363Z,42.38
2022-12-19T23:06:26.441Z,41.79
2022-12-19T23:08:53.034Z,42.44
2022-12-19T23:11:26.047Z,42.17
2022-12-19T23:13:52.756Z,42.04
2022-12-19T23:16:19.465Z,42.30
2022-12-19T23:18:46.140Z,41.72
2022-12-19T23:21:15.657Z,42.26
2022-12-19T23:23:43.882Z,42.25
2022-12-19T23:26:15.947Z,42.03
2022-12-19T23:28:44.044Z,41.79
2022-12-19T23:31:12.843Z,41.91
2022-12-19T23:33:39.427Z,42.03
2022-12-19T23:36:06.988Z,42.33
2022-12-19T23:38:33.814Z,42.35
2022-12-19T23:41:05.505Z,42.08
2022-12-19T23:43:33.350Z,42.82
2022-12-19T23:46:00.002Z,42.65
2022-12-19T23:48:28.398Z,42.49
2022-12-19T23:51:16.462Z,42.20
2022-12-19T23:53:43.411Z,42.11
2022-12-19T23:56:16.119Z,42.26
2022-12-19T23:58:43.081Z,42.14
